Chester, South Dakota
Current Conditions -  °F | °C
As of 8:35 PM on Sunday 23 Nov 2014 (Local Time) from KMDS Reporting Station
Overcast Overcast  
Wind Chill:   Ceiling: 1900
Heat Index: 25°   Visibility: 10mi
Dew Point: 21°   Wind: 25mph
Humidity: 86%   Direction: 330°NNW
Pressure: 29.56"   Gusts: 36mph
Location:  43.89°N, 96.93°W
Report Text: KMDS 240235Z AUTO 33022G31KT 10SM OVC019 M04/M06 A2956 RMK AO2
Loading
Personal Weather Stations






























Interactive Weather Map New forecast layout! Learn more

10-Day Weather Forecast

Advertisements
Track Severe Weather on mobile